Time;durP1;ratioP1;P1;durP2;ratioP2;P2;SDS_P1;SDS_P2;PMS_P1;PMS_P2;Temp;Humidity;BMP_temperature;BMP_pressure;BME280_temperature;BME280_humidity;BME280_pressure;Samples;Min_cycle;Max_cycle;Signal;HPM_P1;HPM_P2
2021/11/28 00:02:16;;;;;;;2.35;0.80;;;;;;;2.58;99.30;96194.09;5035921;28;20056;-64
2021/11/28 00:04:42;;;;;;;2.25;0.70;;;;;;;2.48;98.06;96180.56;5040650;28;20025;-65
2021/11/28 00:15:02;;;;;;;2.78;0.95;;;;;;;2.21;100.00;96173.88;5041510;28;20151;-63
2021/11/28 00:17:28;;;;;;;3.55;1.00;;;;;;;2.13;100.00;96166.94;5047077;28;20110;-63
2021/11/28 00:19:53;;;;;;;2.53;0.80;;;;;;;2.21;99.53;96164.44;5037225;28;20628;-63
2021/11/28 00:22:19;;;;;;;2.53;0.90;;;;;;;2.25;99.29;96160.59;5056338;28;20245;-63
2021/11/28 00:24:44;;;;;;;2.70;0.90;;;;;;;2.24;99.42;96173.56;5034227;28;20475;-62
2021/11/28 00:27:10;;;;;;;2.95;1.00;;;;;;;2.24;99.93;96165.88;5037471;28;20024;-63
2021/11/28 00:29:35;;;;;;;2.85;1.08;;;;;;;2.20;100.00;96178.19;5032571;28;20028;-63
2021/11/28 00:32:03;;;;;;;3.80;1.15;;;;;;;2.14;100.00;96172.91;5039317;28;20554;-64
2021/11/28 00:34:28;;;;;;;2.95;1.08;;;;;;;2.06;100.00;96179.56;5048351;28;20061;-63
2021/11/28 00:36:54;;;;;;;2.95;1.15;;;;;;;2.04;100.00;96181.47;5032520;28;20036;-61
2021/11/28 00:39:20;;;;;;;4.50;1.30;;;;;;;1.98;100.00;96186.41;5038188;28;20050;-62
2021/11/28 00:41:45;;;;;;;2.83;0.95;;;;;;;1.95;99.24;96181.56;5025821;28;20546;-62
2021/11/28 00:44:11;;;;;;;2.55;0.80;;;;;;;2.01;97.32;96186.09;5043769;28;20025;-62
2021/11/28 00:46:37;;;;;;;3.17;0.80;;;;;;;1.95;96.38;96194.38;5054122;28;20115;-62
2021/11/28 00:49:03;;;;;;;2.13;0.65;;;;;;;1.58;97.04;96149.28;5054779;28;20100;-63
2021/11/28 00:51:36;;;;;;;1.65;0.65;;;;;;;1.86;97.28;96208.88;5029031;28;20373;-62
2021/11/28 00:54:02;;;;;;;1.38;0.50;;;;;;;1.73;97.47;96217.78;5037958;28;20028;-63
2021/11/28 00:56:28;;;;;;;1.02;0.40;;;;;;;1.29;96.53;96163.13;5031184;28;20036;-61
2021/11/28 00:58:53;;;;;;;0.95;0.40;;;;;;;1.21;97.18;96165.63;5057877;28;20028;-62
2021/11/28 01:01:19;;;;;;;0.98;0.40;;;;;;;1.10;97.57;96169.22;5051143;28;20053;-62
2021/11/28 01:03:45;;;;;;;0.57;0.32;;;;;;;1.06;97.38;96160.19;5032240;28;20393;-62
2021/11/28 01:06:10;;;;;;;0.52;0.30;;;;;;;1.02;99.23;96152.00;5028553;28;20604;-61
2021/11/28 01:08:37;;;;;;;0.15;0.15;;;;;;;1.52;99.09;96212.94;5035000;28;22970;-60
2021/11/28 01:11:02;;;;;;;0.22;0.20;;;;;;;1.27;100.00;96165.84;5035709;28;20286;-61
2021/11/28 01:13:28;;;;;;;0.40;0.20;;;;;;;1.28;98.99;96216.09;5051622;28;20040;-61
2021/11/28 01:15:54;;;;;;;0.95;0.38;;;;;;;1.32;100.00;96219.19;5036480;28;20074;-61
2021/11/28 01:18:19;;;;;;;0.50;0.20;;;;;;;1.50;100.00;96207.19;5034870;28;20035;-62
2021/11/28 01:20:45;;;;;;;0.85;0.30;;;;;;;1.58;100.00;96203.88;5047827;28;20668;-62
2021/11/28 01:23:10;;;;;;;0.45;0.30;;;;;;;1.38;100.00;96177.63;5057309;28;20032;-62
2021/11/28 01:25:36;;;;;;;0.57;0.20;;;;;;;1.78;100.00;96219.88;5055638;28;20309;-63
2021/11/28 01:28:02;;;;;;;0.45;0.20;;;;;;;1.68;100.00;96217.41;5032635;28;20581;-63
2021/11/28 01:30:27;;;;;;;0.70;0.20;;;;;;;1.60;100.00;96206.28;5024912;28;20634;-63
2021/11/28 01:32:53;;;;;;;1.23;0.30;;;;;;;1.80;100.00;96219.75;5046561;28;20031;-63
2021/11/28 01:35:18;;;;;;;0.30;0.20;;;;;;;1.76;98.86;96214.13;5052855;28;20107;-63
2021/11/28 01:37:44;;;;;;;0.93;0.30;;;;;;;1.73;100.00;96197.28;5054867;28;20685;-64
2021/11/28 01:40:18;;;;;;;1.15;0.30;;;;;;;1.99;100.00;96213.63;5037971;28;20123;-65
2021/11/28 01:43:00;;;;;;;1.42;0.40;;;;;;;1.98;100.00;96220.53;5036455;28;20139;-63
2021/11/28 01:45:28;;;;;;;0.82;0.30;;;;;;;2.06;99.79;96212.06;5021363;28;20834;-63
2021/11/28 01:47:56;;;;;;;0.45;0.20;;;;;;;2.21;98.71;96220.84;5030720;28;20412;-64
2021/11/28 01:50:23;;;;;;;1.02;0.32;;;;;;;1.97;96.52;96167.66;5035502;28;20025;-63
2021/11/28 01:52:49;;;;;;;0.82;0.30;;;;;;;2.43;98.06;96229.78;5029986;28;20032;-63
2021/11/28 01:55:22;;;;;;;0.50;0.20;;;;;;;2.29;96.59;96238.81;5056340;28;20065;-63
2021/11/28 01:57:48;;;;;;;0.80;0.20;;;;;;;2.33;95.44;96244.47;5045673;28;20176;-63
2021/11/28 02:00:18;;;;;;;0.57;0.30;;;;;;;2.28;96.55;96233.84;5041181;28;20028;-62
2021/11/28 02:02:43;;;;;;;0.70;0.20;;;;;;;2.26;97.19;96234.03;5054590;28;20024;-63
2021/11/28 02:05:09;;;;;;;0.10;0.10;;;;;;;2.29;96.48;96235.47;5040585;28;20043;-63
2021/11/28 02:07:35;;;;;;;0.30;0.20;;;;;;;1.85;95.71;96189.34;5042372;28;20039;-64
2021/11/28 02:10:02;;;;;;;0.13;0.10;;;;;;;2.07;95.97;96244.47;5038172;28;20025;-65
2021/11/28 02:12:29;;;;;;;0.65;0.22;;;;;;;1.93;96.27;96227.84;5040863;28;20024;-63
2021/11/28 02:14:56;;;;;;;0.57;0.20;;;;;;;1.95;96.22;96232.81;5046852;28;20071;-64
2021/11/28 02:17:22;;;;;;;0.10;0.10;;;;;;;1.73;95.85;96204.16;5039894;28;20033;-63
2021/11/28 02:19:47;;;;;;;0.55;0.20;;;;;;;1.72;95.87;96218.72;5046772;28;20024;-62
2021/11/28 02:22:14;;;;;;;0.30;0.20;;;;;;;1.92;96.22;96241.63;5061981;28;20071;-62
2021/11/28 02:24:40;;;;;;;0.75;0.20;;;;;;;1.90;96.15;96249.47;5054521;28;20678;-63
2021/11/28 02:27:06;;;;;;;2.47;0.30;;;;;;;1.94;95.36;96252.53;5055763;28;20506;-63
2021/11/28 02:29:32;;;;;;;0.32;0.10;;;;;;;1.97;94.69;96269.38;5042225;28;20024;-63
2021/11/28 02:31:57;;;;;;;0.50;0.30;;;;;;;1.86;95.42;96260.13;5057520;28;20025;-63
2021/11/28 02:34:23;;;;;;;0.20;0.10;;;;;;;1.89;96.05;96273.47;5044601;28;20083;-63
2021/11/28 02:36:52;;;;;;;0.82;0.20;;;;;;;2.02;95.92;96278.22;5060910;28;20107;-62
2021/11/28 02:39:19;;;;;;;0.20;0.10;;;;;;;2.06;96.17;96269.28;5039680;28;20032;-63
2021/11/28 02:41:46;;;;;;;0.32;0.20;;;;;;;2.12;95.57;96262.75;5040063;28;20094;-63
2021/11/28 02:44:12;;;;;;;0.32;0.20;;;;;;;2.11;95.21;96254.25;5060754;28;20618;-63
2021/11/28 02:46:37;;;;;;;0.60;0.20;;;;;;;2.08;95.03;96251.19;5059325;28;20085;-62
2021/11/28 02:49:03;;;;;;;0.65;0.25;;;;;;;1.96;94.76;96255.75;5049117;28;20115;-63
2021/11/28 02:51:28;;;;;;;0.85;0.28;;;;;;;1.83;95.02;96256.13;5027489;28;20107;-62
2021/11/28 02:53:54;;;;;;;0.68;0.30;;;;;;;1.71;95.39;96257.31;5035373;28;20783;-62
2021/11/28 02:56:19;;;;;;;0.55;0.25;;;;;;;1.62;96.28;96261.53;5057900;28;20078;-62
2021/11/28 02:58:46;;;;;;;0.77;0.30;;;;;;;1.20;96.89;96220.31;5029167;28;20111;-62
2021/11/28 03:01:18;;;;;;;0.65;0.30;;;;;;;1.42;97.43;96258.31;5039979;28;20029;-62
2021/11/28 03:03:45;;;;;;;1.10;0.30;;;;;;;1.33;98.37;96254.06;5037091;28;20500;-62
2021/11/28 03:06:10;;;;;;;1.10;0.30;;;;;;;1.37;98.48;96246.88;5043246;28;20557;-62
2021/11/28 03:08:37;;;;;;;0.30;0.20;;;;;;;1.30;97.95;96242.34;5027610;28;20083;-62
2021/11/28 03:11:03;;;;;;;0.68;0.28;;;;;;;1.08;99.34;96181.34;5042885;28;20029;-62
2021/11/28 03:13:36;;;;;;;2.08;0.30;;;;;;;1.59;98.95;96225.16;5048996;28;20029;-62
2021/11/28 03:16:06;;;;;;;1.27;0.40;;;;;;;1.54;98.34;96159.81;5026147;28;20475;-62
2021/11/28 03:18:32;;;;;;;0.88;0.30;;;;;;;1.85;98.24;96207.31;5036186;28;20099;-62
2021/11/28 03:21:04;;;;;;;0.85;0.30;;;;;;;1.77;97.93;96220.03;5022392;28;20028;-62
2021/11/28 03:23:31;;;;;;;0.47;0.30;;;;;;;2.00;99.00;96222.94;5054356;28;20033;-62
2021/11/28 03:26:07;;;;;;;0.82;0.30;;;;;;;1.57;98.68;96151.06;5021720;28;20033;-64
2021/11/28 03:28:33;;;;;;;1.05;0.30;;;;;;;2.03;99.44;96218.31;5025550;28;20502;-62
2021/11/28 03:30:58;;;;;;;0.57;0.25;;;;;;;2.01;97.49;96225.34;5043321;28;20043;-62
2021/11/28 03:33:23;;;;;;;1.17;0.40;;;;;;;1.96;99.05;96214.75;5056076;28;20116;-62
2021/11/28 03:35:50;;;;;;;0.82;0.30;;;;;;;1.96;98.00;96212.19;5052371;28;20421;-62
2021/11/28 03:38:15;;;;;;;0.80;0.28;;;;;;;2.05;99.01;96211.28;5054220;28;20045;-62
2021/11/28 03:40:41;;;;;;;0.95;0.25;;;;;;;2.02;100.00;96203.88;5055852;28;20398;-62
2021/11/28 03:43:07;;;;;;;0.43;0.20;;;;;;;1.52;96.38;96218.06;5036556;28;20609;-62
2021/11/28 03:45:32;;;;;;;0.80;0.35;;;;;;;1.38;97.90;96205.78;5041004;28;20409;-62
2021/11/28 03:47:58;;;;;;;0.40;0.20;;;;;;;0.93;97.77;96168.22;5054695;28;20039;-61
2021/11/28 03:50:23;;;;;;;0.20;0.20;;;;;;;1.19;97.24;96222.09;5045492;28;20024;-61
2021/11/28 03:52:49;;;;;;;0.80;0.20;;;;;;;1.09;98.49;96204.22;5046527;28;20497;-61
2021/11/28 03:55:16;;;;;;;1.98;0.30;;;;;;;1.28;99.75;96205.84;5046354;28;20024;-61
2021/11/28 03:57:42;;;;;;;0.88;0.30;;;;;;;1.46;99.56;96198.19;5055466;28;20111;-61
2021/11/28 04:00:10;;;;;;;0.70;0.30;;;;;;;1.68;100.00;96188.41;5040055;28;20029;-61
2021/11/28 04:02:36;;;;;;;1.25;0.45;;;;;;;1.43;98.96;96195.13;5056724;28;20032;-62
2021/11/28 04:05:02;;;;;;;0.77;0.20;;;;;;;1.21;100.00;96145.94;5039488;28;20032;-61
2021/11/28 04:07:27;;;;;;;0.98;0.40;;;;;;;0.97;98.76;96133.75;5051238;28;20036;-61
2021/11/28 04:09:53;;;;;;;0.25;0.15;;;;;;;1.26;99.73;96191.56;5038578;28;20773;-61
2021/11/28 04:12:18;;;;;;;0.43;0.22;;;;;;;1.17;98.92;96190.72;5051830;28;20387;-59
2021/11/28 04:14:44;;;;;;;0.22;0.20;;;;;;;1.40;100.00;96172.34;5058865;28;20078;-61
2021/11/28 04:17:10;;;;;;;0.85;0.30;;;;;;;1.63;100.00;96190.63;5050267;28;20139;-62
2021/11/28 04:19:35;;;;;;;0.47;0.30;;;;;;;1.48;99.20;96185.25;5055567;28;20040;-61
2021/11/28 04:22:00;;;;;;;0.52;0.20;;;;;;;1.47;100.00;96160.56;5054733;28;20032;-62
2021/11/28 04:24:26;;;;;;;0.47;0.20;;;;;;;1.19;99.12;96135.06;5055564;28;20726;-61
2021/11/28 04:26:51;;;;;;;0.75;0.30;;;;;;;1.64;100.00;96195.63;5064670;28;20063;-62
2021/11/28 04:29:17;;;;;;;0.57;0.20;;;;;;;1.72;100.00;96185.41;5058515;28;20029;-62
2021/11/28 04:31:43;;;;;;;0.47;0.20;;;;;;;1.51;97.24;96183.16;5037594;28;20066;-62
2021/11/28 04:34:09;;;;;;;0.63;0.22;;;;;;;1.65;99.94;96189.53;5042960;28;20470;-62
2021/11/28 04:36:34;;;;;;;0.60;0.30;;;;;;;1.83;99.82;96194.63;5055369;28;20036;-62
2021/11/28 04:38:59;;;;;;;0.10;0.10;;;;;;;1.64;96.69;96185.38;5018864;28;20653;-61
2021/11/28 04:41:25;;;;;;;0.43;0.20;;;;;;;1.49;96.27;96186.84;5049134;28;20112;-62
2021/11/28 04:43:50;;;;;;;0.20;0.20;;;;;;;1.63;98.64;96185.50;5021388;28;20075;-62
2021/11/28 04:46:16;;;;;;;0.35;0.20;;;;;;;1.83;98.69;96188.72;5060228;28;20059;-61
2021/11/28 04:48:41;;;;;;;1.60;0.30;;;;;;;1.74;96.78;96190.41;5039792;28;20032;-61
2021/11/28 04:51:06;;;;;;;0.65;0.30;;;;;;;1.80;97.34;96168.50;5040994;28;20111;-61
2021/11/28 04:53:32;;;;;;;0.20;0.20;;;;;;;1.96;97.37;96178.06;5047554;28;20071;-61
2021/11/28 04:55:57;;;;;;;0.52;0.30;;;;;;;1.42;95.43;96109.78;5052994;28;20012;-61
2021/11/28 04:58:23;;;;;;;0.98;0.30;;;;;;;2.02;95.29;96173.13;5055236;28;20103;-61
2021/11/28 05:00:48;;;;;;;0.77;0.30;;;;;;;1.88;93.42;96165.97;5056841;28;20032;-61
2021/11/28 05:03:14;;;;;;;0.88;0.25;;;;;;;1.88;93.82;96165.97;5048741;28;20097;-60
2021/11/28 05:05:39;;;;;;;1.33;0.30;;;;;;;1.95;93.46;96163.63;5043293;28;20099;-61
2021/11/28 05:08:04;;;;;;;1.15;0.55;;;;;;;1.88;94.10;96173.66;5032955;28;20028;-60
2021/11/28 05:10:30;;;;;;;0.60;0.28;;;;;;;1.87;94.27;96166.94;5050729;28;20028;-61
2021/11/28 05:12:56;;;;;;;0.93;0.30;;;;;;;1.95;92.92;96169.56;5051753;28;20040;-61
2021/11/28 05:15:21;;;;;;;0.82;0.28;;;;;;;1.94;92.90;96162.84;5035597;28;20610;-61
2021/11/28 05:17:47;;;;;;;0.68;0.30;;;;;;;2.03;92.14;96161.13;5035484;28;20037;-61
2021/11/28 05:20:12;;;;;;;2.55;0.40;;;;;;;2.07;92.31;96165.00;5059802;28;20024;-61
2021/11/28 05:22:38;;;;;;;1.80;0.50;;;;;;;2.05;91.96;96160.00;5041245;28;20491;-62
2021/11/28 05:25:06;;;;;;;0.70;0.20;;;;;;;2.07;91.34;96157.31;5035962;28;20492;-61
2021/11/28 05:27:31;;;;;;;1.08;0.32;;;;;;;2.07;91.11;96162.44;5037243;28;20033;-61
2021/11/28 05:29:57;;;;;;;0.65;0.28;;;;;;;2.17;90.55;96160.53;5046845;28;20029;-62
2021/11/28 05:32:22;;;;;;;0.85;0.20;;;;;;;2.11;89.77;96145.78;5040564;28;20112;-60
2021/11/28 05:34:48;;;;;;;0.88;0.30;;;;;;;2.21;90.88;96149.06;5040272;28;20445;-60
2021/11/28 05:37:15;;;;;;;0.60;0.20;;;;;;;2.17;90.74;96139.25;5056049;28;20044;-61
2021/11/28 05:39:41;;;;;;;1.00;0.30;;;;;;;2.16;87.42;96112.81;5044256;28;20024;-60
2021/11/28 05:42:07;;;;;;;0.30;0.20;;;;;;;2.47;88.31;96140.50;5051604;28;20056;-59
2021/11/28 05:44:32;;;;;;;0.47;0.30;;;;;;;2.42;88.91;96138.38;5041834;28;20108;-60
2021/11/28 05:46:57;;;;;;;0.98;0.30;;;;;;;2.42;89.77;96138.38;5029978;28;20024;-60
2021/11/28 05:49:23;;;;;;;0.30;0.20;;;;;;;2.43;89.82;96142.56;5030551;28;20119;-61
2021/11/28 05:51:48;;;;;;;0.10;0.10;;;;;;;2.49;88.92;96139.38;5043415;28;20056;-59
2021/11/28 05:54:14;;;;;;;0.63;0.20;;;;;;;2.16;88.86;96073.56;5043123;28;20132;-60
2021/11/28 05:56:40;;;;;;;0.55;0.28;;;;;;;2.52;88.63;96134.91;5054226;28;20061;-60
2021/11/28 05:59:05;;;;;;;0.30;0.20;;;;;;;2.51;89.42;96131.53;5041819;28;20037;-59
2021/11/28 06:01:31;;;;;;;0.60;0.20;;;;;;;2.56;90.17;96139.56;5040777;28;20056;-59
2021/11/28 06:03:56;;;;;;;0.90;0.30;;;;;;;2.55;90.40;96135.41;5044232;28;20040;-60
2021/11/28 06:06:21;;;;;;;1.00;0.30;;;;;;;2.56;88.62;96110.56;5039098;28;20091;-59
2021/11/28 06:08:47;;;;;;;0.60;0.20;;;;;;;2.56;89.86;96121.63;5044268;28;20530;-60
2021/11/28 06:11:12;;;;;;;0.93;0.22;;;;;;;2.60;90.31;96128.03;5059367;28;20510;-59
2021/11/28 06:13:38;;;;;;;0.38;0.20;;;;;;;2.62;90.02;96131.25;5066251;28;20360;-61
2021/11/28 06:16:05;;;;;;;0.43;0.20;;;;;;;2.45;89.29;96115.00;5062408;28;20761;-59
2021/11/28 06:18:31;;;;;;;0.85;0.45;;;;;;;2.57;89.80;96132.69;5059696;28;20036;-60
2021/11/28 06:20:56;;;;;;;1.30;0.32;;;;;;;2.61;90.00;96133.97;5045092;28;20036;-59
2021/11/28 06:23:22;;;;;;;0.22;0.15;;;;;;;2.30;90.00;96090.91;5059089;28;20158;-59
2021/11/28 06:25:47;;;;;;;0.55;0.20;;;;;;;2.74;87.87;96143.78;5031030;28;20037;-59
2021/11/28 06:28:13;;;;;;;1.20;0.30;;;;;;;2.72;87.68;96130.31;5030448;28;20024;-60
2021/11/28 06:30:38;;;;;;;1.75;0.40;;;;;;;2.66;87.68;96118.91;5054017;28;20032;-59
2021/11/28 06:33:04;;;;;;;0.40;0.22;;;;;;;2.42;88.42;96081.97;5062715;28;20502;-59
2021/11/28 06:35:29;;;;;;;0.30;0.20;;;;;;;2.78;88.29;96130.50;5041533;28;20034;-59
2021/11/28 06:37:55;;;;;;;0.75;0.30;;;;;;;2.72;88.23;96130.31;5052354;28;20039;-59
2021/11/28 06:40:20;;;;;;;0.35;0.17;;;;;;;2.66;89.29;96126.63;5059235;28;20047;-59
2021/11/28 06:42:46;;;;;;;1.00;0.50;;;;;;;2.58;89.16;96129.97;5040036;28;20029;-59
2021/11/28 06:45:12;;;;;;;1.15;0.30;;;;;;;2.59;88.45;96139.28;5028821;28;20070;-60
2021/11/28 06:47:38;;;;;;;0.45;0.20;;;;;;;2.57;85.56;96130.13;5026586;28;20033;-59
2021/11/28 06:50:04;;;;;;;1.35;0.35;;;;;;;2.62;85.36;96128.69;5020930;28;20024;-60
2021/11/28 06:52:30;;;;;;;2.05;0.40;;;;;;;2.59;85.64;96128.19;5026675;28;20139;-58
2021/11/28 06:54:55;;;;;;;0.40;0.20;;;;;;;2.52;86.55;96122.06;5042158;28;20108;-58
2021/11/28 06:57:20;;;;;;;0.65;0.30;;;;;;;2.53;87.28;96128.81;5043973;28;20139;-58
2021/11/28 06:59:46;;;;;;;1.50;0.30;;;;;;;2.62;88.08;96135.59;5035259;28;20190;-60
2021/11/28 07:02:11;;;;;;;0.60;0.30;;;;;;;2.49;87.59;96129.13;5053895;28;20024;-59
2021/11/28 07:04:37;;;;;;;0.68;0.28;;;;;;;2.46;87.51;96144.84;5052005;28;20113;-58
2021/11/28 07:07:03;;;;;;;2.90;0.50;;;;;;;2.53;87.25;96144.22;5055324;28;20320;-59
2021/11/28 07:09:29;;;;;;;0.38;0.28;;;;;;;2.59;85.45;96152.09;5054983;28;20032;-60
2021/11/28 07:11:55;;;;;;;2.08;0.30;;;;;;;2.47;86.25;96149.00;5055682;28;20735;-59
2021/11/28 07:14:20;;;;;;;2.70;0.35;;;;;;;2.56;85.07;96134.44;5035960;28;20101;-60
2021/11/28 07:16:46;;;;;;;1.27;0.30;;;;;;;2.59;87.08;96146.97;5042263;28;20024;-59
2021/11/28 07:19:11;;;;;;;1.10;0.35;;;;;;;2.62;87.17;96145.84;5051380;28;20109;-58
2021/11/28 07:21:37;;;;;;;3.05;0.40;;;;;;;2.56;88.67;96138.78;5055773;28;20032;-59
2021/11/28 07:24:03;;;;;;;1.70;0.40;;;;;;;2.75;89.10;96159.03;5021539;28;20032;-60
2021/11/28 07:26:28;;;;;;;2.13;0.68;;;;;;;2.74;89.17;96164.31;5037638;28;20768;-60
2021/11/28 07:28:54;;;;;;;2.25;0.50;;;;;;;2.69;84.77;96163.03;5051915;28;20033;-59
2021/11/28 07:31:20;;;;;;;1.33;0.47;;;;;;;2.58;85.25;96139.44;5057350;28;20025;-59
2021/11/28 07:33:46;;;;;;;2.40;0.90;;;;;;;2.85;84.12;96158.91;5045558;28;20024;-58
2021/11/28 07:36:11;;;;;;;1.05;0.50;;;;;;;2.97;81.48;96169.69;5038937;28;20043;-60
2021/11/28 07:38:38;;;;;;;1.90;0.52;;;;;;;3.15;83.28;96175.50;5062736;28;20037;-59
2021/11/28 07:41:04;;;;;;;1.38;0.45;;;;;;;3.12;80.58;96168.13;5041237;28;20656;-60
2021/11/28 07:43:30;;;;;;;1.33;0.40;;;;;;;3.14;82.45;96166.22;5038038;28;20039;-60
2021/11/28 07:45:56;;;;;;;3.20;0.70;;;;;;;3.18;81.39;96180.34;5055838;28;20078;-60
2021/11/28 07:48:21;;;;;;;1.08;0.40;;;;;;;3.18;82.96;96176.97;5039520;28;20530;-59
2021/11/28 07:50:47;;;;;;;0.88;0.30;;;;;;;3.30;82.72;96185.16;5041460;28;20028;-59
2021/11/28 07:53:14;;;;;;;1.88;0.40;;;;;;;3.40;81.69;96188.41;5032696;28;20025;-59
2021/11/28 07:55:40;;;;;;;1.55;0.40;;;;;;;3.42;82.55;96182.13;5059216;28;20024;-59
2021/11/28 07:58:05;;;;;;;1.75;0.50;;;;;;;3.39;81.37;96176.50;5013460;28;20044;-60
2021/11/28 08:00:34;;;;;;;1.25;0.40;;;;;;;3.48;79.32;96190.97;5065186;28;20031;-58
2021/11/28 08:02:59;;;;;;;1.42;0.50;;;;;;;3.35;78.72;96146.97;5031073;28;20671;-59
2021/11/28 08:05:24;;;;;;;2.05;0.47;;;;;;;3.61;80.71;96190.47;5064325;28;20029;-59
2021/11/28 08:07:50;;;;;;;1.08;0.40;;;;;;;3.53;81.42;96186.16;5047343;28;20626;-60
2021/11/28 08:10:15;;;;;;;2.85;0.50;;;;;;;3.50;81.68;96183.09;5048771;28;20033;-59
2021/11/28 08:12:41;;;;;;;1.65;0.50;;;;;;;3.49;81.15;96196.91;5059099;28;20047;-59
2021/11/28 08:15:09;;;;;;;1.67;0.47;;;;;;;3.49;80.80;96192.56;5045015;28;20047;-60
2021/11/28 08:17:38;;;;;;;1.48;0.40;;;;;;;3.54;79.73;96189.50;5050626;28;20036;-59
2021/11/28 08:20:07;;;;;;;1.27;0.40;;;;;;;3.53;79.12;96193.06;5042642;28;20059;-59
2021/11/28 08:22:33;;;;;;;2.15;0.40;;;;;;;3.47;79.63;96185.03;5041968;28;20048;-60
2021/11/28 08:24:58;;;;;;;2.85;0.60;;;;;;;3.53;80.49;96188.72;5045745;28;20102;-59
2021/11/28 08:27:24;;;;;;;2.55;0.60;;;;;;;3.46;81.44;96183.41;5050155;28;20106;-58
2021/11/28 08:29:50;;;;;;;1.35;0.40;;;;;;;3.41;79.75;96188.25;5053596;28;20028;-59
2021/11/28 08:32:16;;;;;;;1.85;0.50;;;;;;;3.53;77.26;96175.88;5062957;28;20511;-59
2021/11/28 08:34:43;;;;;;;2.45;0.47;;;;;;;3.61;78.69;96183.59;5041326;28;20056;-59
2021/11/28 08:37:09;;;;;;;3.92;0.90;;;;;;;3.66;78.47;96178.75;5058081;28;20032;-58
2021/11/28 08:39:35;;;;;;;3.17;1.10;;;;;;;3.66;79.21;96183.09;5042419;28;20032;-59
2021/11/28 08:42:03;;;;;;;3.33;1.10;;;;;;;3.64;79.19;96177.31;5057789;28;20032;-60
2021/11/28 08:44:29;;;;;;;2.58;0.90;;;;;;;3.72;78.56;96179.09;5046101;28;20031;-59
2021/11/28 08:46:54;;;;;;;1.73;0.65;;;;;;;3.66;80.26;96175.41;5039306;28;20036;-59
2021/11/28 08:49:20;;;;;;;2.88;0.90;;;;;;;3.62;81.83;96174.91;5041520;28;20536;-58
2021/11/28 08:51:46;;;;;;;6.43;0.80;;;;;;;3.63;81.44;96176.53;5060125;28;20028;-59
2021/11/28 08:54:13;;;;;;;2.88;0.43;;;;;;;3.66;80.21;96176.19;5041468;28;20027;-58
2021/11/28 08:56:43;;;;;;;4.22;0.70;;;;;;;3.40;79.31;96124.19;5055935;28;20679;-58
2021/11/28 08:59:08;;;;;;;2.47;0.60;;;;;;;3.78;77.98;96174.09;5053946;28;20622;-59
2021/11/28 09:01:34;;;;;;;2.92;0.80;;;;;;;3.83;78.70;96183.88;5032186;28;20031;-58
2021/11/28 09:03:59;;;;;;;2.35;0.60;;;;;;;3.87;77.44;96185.19;5056167;28;20039;-58
2021/11/28 09:06:24;;;;;;;3.88;1.20;;;;;;;3.81;76.19;96178.91;5039501;28;20467;-60
2021/11/28 09:08:50;;;;;;;4.68;1.65;;;;;;;3.92;74.22;96174.41;5047844;28;20412;-60
2021/11/28 09:11:15;;;;;;;4.07;1.30;;;;;;;4.00;73.95;96180.34;5041594;28;20090;-59
2021/11/28 09:13:41;;;;;;;4.90;1.70;;;;;;;4.10;74.08;96181.94;5051649;28;20031;-59
2021/11/28 09:16:10;;;;;;;4.57;1.15;;;;;;;4.13;72.58;96181.63;5057234;28;20033;-60
2021/11/28 09:18:41;;;;;;;3.88;1.00;;;;;;;4.16;73.72;96189.00;5040883;28;20521;-61
2021/11/28 09:21:08;;;;;;;3.03;1.10;;;;;;;3.90;72.32;96135.22;5036221;28;20080;-59
2021/11/28 09:26:17;;;;;;;3.75;0.80;;;;;;;4.30;71.26;96200.41;5035366;28;20128;-59
2021/11/28 09:28:43;;;;;;;3.25;0.90;;;;;;;4.26;72.45;96188.84;5041103;28;20032;-60
2021/11/28 09:31:10;;;;;;;2.88;0.70;;;;;;;4.26;69.95;96201.69;5052922;28;21496;-59
2021/11/28 09:33:39;;;;;;;4.20;1.20;;;;;;;4.37;71.03;96203.91;5028895;28;20029;-60
2021/11/28 09:36:06;;;;;;;2.20;0.80;;;;;;;4.31;71.69;96202.81;5023627;28;20051;-59
2021/11/28 09:38:31;;;;;;;4.60;1.40;;;;;;;4.32;70.66;96201.81;5046873;28;20035;-60
2021/11/28 09:41:09;;;;;;;3.22;1.02;;;;;;;4.12;70.73;96157.66;5022113;28;20028;-60
2021/11/28 09:43:36;;;;;;;4.70;1.48;;;;;;;4.29;70.89;96191.88;5039802;28;20037;-58
2021/11/28 09:46:03;;;;;;;5.55;1.30;;;;;;;4.41;70.91;96189.75;5044033;28;20039;-59
2021/11/28 09:48:31;;;;;;;4.07;1.52;;;;;;;4.32;69.69;96183.81;5048330;28;20055;-59
2021/11/28 09:50:57;;;;;;;3.20;1.00;;;;;;;4.22;70.50;96153.16;5010524;28;20220;-59
2021/11/28 09:53:22;;;;;;;4.93;1.20;;;;;;;4.37;72.48;96188.47;5028684;28;20948;-59
2021/11/28 09:55:49;;;;;;;3.55;1.13;;;;;;;4.43;72.82;96193.78;5042995;28;20143;-59
2021/11/28 09:58:15;;;;;;;2.25;0.70;;;;;;;4.40;69.80;96194.09;5027846;28;20119;-60
2021/11/28 10:00:40;;;;;;;4.50;1.55;;;;;;;4.49;71.27;96194.88;5046947;28;20370;-59
2021/11/28 10:03:07;;;;;;;4.45;0.90;;;;;;;4.53;72.34;96190.22;5042724;28;20025;-59
2021/11/28 10:05:32;;;;;;;3.15;1.10;;;;;;;4.51;73.52;96187.81;4995289;28;20043;-59
2021/11/28 10:07:58;;;;;;;3.75;1.00;;;;;;;4.42;71.25;96176.72;5039561;28;20029;-58
2021/11/28 10:10:24;;;;;;;4.50;1.10;;;;;;;4.48;71.11;96167.53;5049477;28;20052;-61
2021/11/28 10:12:51;;;;;;;2.30;0.82;;;;;;;4.53;71.03;96175.56;5041509;28;20499;-59
2021/11/28 10:15:23;;;;;;;4.03;1.10;;;;;;;4.53;70.92;96170.41;5027375;28;20117;-59
2021/11/28 10:17:49;;;;;;;2.47;0.80;;;;;;;4.52;70.26;96157.72;5033619;28;20104;-59
2021/11/28 10:20:17;;;;;;;3.65;0.90;;;;;;;4.65;71.64;96176.00;5032664;28;20136;-59
2021/11/28 10:22:46;;;;;;;3.58;0.82;;;;;;;4.65;69.45;96177.78;5056636;28;20024;-59
2021/11/28 10:25:26;;;;;;;3.75;1.02;;;;;;;4.62;70.47;96158.34;5033341;28;20056;-59
2021/11/28 10:28:04;;;;;;;5.25;1.00;;;;;;;4.70;70.01;96176.31;5031672;28;20052;-59
2021/11/28 10:30:29;;;;;;;2.55;0.60;;;;;;;4.71;69.36;96182.25;5026238;28;20502;-59
2021/11/28 10:33:03;;;;;;;2.72;0.95;;;;;;;4.72;69.19;96176.94;5049519;28;20037;-59
2021/11/28 10:35:28;;;;;;;4.43;0.80;;;;;;;4.69;72.34;96167.00;5046607;28;20112;-59
2021/11/28 10:37:54;;;;;;;2.17;0.77;;;;;;;4.71;68.32;96164.22;5047546;28;20108;-59
2021/11/28 10:40:26;;;;;;;1.85;0.60;;;;;;;4.60;68.29;96131.97;5038868;28;20098;-59
2021/11/28 10:43:10;;;;;;;1.30;0.40;;;;;;;4.85;66.76;96175.59;5050770;28;20407;-59
2021/11/28 10:45:48;;;;;;;3.13;0.70;;;;;;;4.85;69.35;96173.81;4987830;28;20032;-59
2021/11/28 10:48:21;;;;;;;3.10;0.90;;;;;;;5.00;68.14;96167.00;5047697;28;20023;-59
2021/11/28 10:50:47;;;;;;;2.05;0.70;;;;;;;4.94;68.49;96169.44;5041054;28;20021;-60
2021/11/28 10:53:15;;;;;;;3.08;0.70;;;;;;;4.81;69.89;96142.44;5031143;28;20598;-59
2021/11/28 10:55:41;;;;;;;2.20;0.65;;;;;;;4.90;70.33;96166.41;5041744;28;20036;-61
2021/11/28 10:58:18;;;;;;;3.38;0.88;;;;;;;4.96;70.28;96173.44;5049172;28;20032;-61
2021/11/28 11:00:50;;;;;;;1.80;0.50;;;;;;;4.91;70.04;96165.44;4984819;28;20513;-62
2021/11/28 11:03:19;;;;;;;2.00;0.60;;;;;;;4.82;70.21;96167.25;5033261;28;20064;-62
2021/11/28 11:05:45;;;;;;;;;;;;;;;4.87;69.85;96161.56;5061056;28;20490;-62
2021/11/28 11:08:15;;;;;;;1.55;0.50;;;;;;;4.90;70.52;96160.44;5052152;28;20356;-62
2021/11/28 11:10:41;;;;;;;2.83;0.82;;;;;;;4.55;70.59;96108.50;5050163;28;20029;-61
2021/11/28 11:13:11;;;;;;;2.45;0.70;;;;;;;4.56;71.98;96110.06;5046388;28;20376;-61
2021/11/28 11:15:40;;;;;;;2.50;0.68;;;;;;;4.65;72.13;96123.72;5036626;28;20035;-62
2021/11/28 11:18:09;;;;;;;2.92;1.10;;;;;;;4.81;72.38;96159.69;5052397;28;20028;-61
2021/11/28 11:20:39;;;;;;;3.50;1.00;;;;;;;4.85;71.59;96152.44;5053325;28;20017;-61
2021/11/28 11:23:31;;;;;;;2.50;0.77;;;;;;;4.78;72.82;96153.09;5039893;28;20419;-61
2021/11/28 11:26:15;;;;;;;2.72;0.90;;;;;;;4.76;73.68;96155.06;5054621;28;20056;-61
2021/11/28 11:29:14;;;;;;;4.15;1.02;;;;;;;4.79;75.30;96159.84;5055361;28;20036;-61
2021/11/28 11:31:54;;;;;;;3.45;1.10;;;;;;;4.70;74.25;96142.03;5041388;28;20586;-61
2021/11/28 11:34:27;;;;;;;3.28;0.90;;;;;;;4.77;74.82;96153.28;5045994;28;20510;-61
2021/11/28 11:36:56;;;;;;;3.28;0.93;;;;;;;4.75;74.45;96148.28;5035470;28;20044;-61
2021/11/28 11:39:23;;;;;;;4.95;1.25;;;;;;;4.79;75.11;96141.81;5033258;28;20021;-62
2021/11/28 11:41:48;;;;;;;3.15;1.00;;;;;;;4.78;74.93;96153.09;5056622;28;20476;-61
2021/11/28 11:44:16;;;;;;;4.82;1.95;;;;;;;4.79;76.14;96148.75;5048720;28;21075;-61
2021/11/28 11:46:48;;;;;;;3.97;1.50;;;;;;;4.87;75.84;96153.84;5052289;28;20071;-61
2021/11/28 11:49:15;;;;;;;4.05;1.20;;;;;;;4.39;74.66;96063.84;4998703;28;20425;-61
2021/11/28 11:51:41;;;;;;;3.00;0.90;;;;;;;5.00;73.02;96143.81;5025969;28;20044;-61